Time;durP1;ratioP1;P1;durP2;ratioP2;P2;SDS_P1;SDS_P2;PMS_P1;PMS_P2;Temp;Humidity;BMP_temperature;BMP_pressure;BME280_temperature;BME280_humidity;BME280_pressure;Samples;Min_cycle;Max_cycle;Signal;HPM_P1;HPM_P2
2023/05/16 00:01:56;;;;;;;7.57;4.90;;;;;;;7.98;100.00;93601.31;5090326;28;20044;-59
2023/05/16 00:04:25;;;;;;;8.82;4.47;;;;;;;7.90;100.00;93597.88;5090466;28;20788;-58
2023/05/16 00:06:52;;;;;;;5.97;4.10;;;;;;;7.82;100.00;93601.09;5089985;28;20117;-59
2023/05/16 00:09:18;;;;;;;5.97;3.97;;;;;;;7.83;100.00;93595.22;5090429;28;20028;-59
2023/05/16 00:11:47;;;;;;;6.60;4.82;;;;;;;7.83;100.00;93589.78;5089893;28;20116;-59
2023/05/16 00:14:14;;;;;;;7.30;4.70;;;;;;;7.75;100.00;93589.06;5069237;28;20248;-60
2023/05/16 00:16:40;;;;;;;7.55;4.72;;;;;;;7.69;100.00;93589.91;5071644;28;20045;-61
2023/05/16 00:19:08;;;;;;;7.15;4.45;;;;;;;7.73;100.00;93594.16;5082984;28;20063;-59
2023/05/16 00:21:36;;;;;;;6.90;4.70;;;;;;;7.78;100.00;93590.97;5070105;28;20037;-60
2023/05/16 00:24:03;;;;;;;32.67;20.88;;;;;;;7.83;100.00;93597.16;5075474;28;20120;-59
2023/05/16 00:26:30;;;;;;;10.73;6.57;;;;;;;7.75;100.00;93591.78;5077647;28;20036;-59
2023/05/16 00:28:56;;;;;;;7.45;5.03;;;;;;;7.75;100.00;93588.28;5069376;28;20051;-59
2023/05/16 00:31:23;;;;;;;7.18;4.70;;;;;;;7.54;100.00;93590.03;5069562;28;20032;-61
2023/05/16 00:33:50;;;;;;;6.97;5.00;;;;;;;7.72;100.00;93591.81;5069235;28;20055;-60
2023/05/16 00:36:16;;;;;;;6.55;4.97;;;;;;;7.78;100.00;93588.22;5074210;28;20040;-59
2023/05/16 00:38:43;;;;;;;6.90;4.90;;;;;;;7.72;100.00;93591.81;5072666;28;20042;-59
2023/05/16 00:41:10;;;;;;;7.45;4.75;;;;;;;7.80;100.00;93590.56;5069353;28;20044;-59
2023/05/16 00:43:38;;;;;;;8.38;5.45;;;;;;;7.78;100.00;93585.50;5071341;28;20032;-60
2023/05/16 00:46:05;;;;;;;7.63;4.80;;;;;;;7.80;100.00;93588.59;5090375;28;20528;-60
2023/05/16 00:48:32;;;;;;;7.85;4.70;;;;;;;7.72;100.00;93580.91;5078126;28;20392;-61
2023/05/16 00:51:00;;;;;;;8.10;4.77;;;;;;;7.83;100.00;93584.31;5087484;28;20042;-60
2023/05/16 00:53:27;;;;;;;8.20;4.70;;;;;;;7.92;100.00;93584.59;5075730;28;20036;-61
2023/05/16 00:55:55;;;;;;;6.70;4.65;;;;;;;7.98;100.00;93576.72;5088138;28;20085;-59
2023/05/16 00:58:22;;;;;;;8.18;5.15;;;;;;;7.95;100.00;93581.06;5083177;28;20042;-58
2023/05/16 01:00:48;;;;;;;7.88;5.00;;;;;;;7.99;100.00;93573.59;5088581;28;20040;-59
2023/05/16 01:03:15;;;;;;;9.03;5.13;;;;;;;8.05;100.00;93575.88;5069129;28;20040;-59
2023/05/16 01:05:43;;;;;;;8.00;4.65;;;;;;;8.05;100.00;93573.94;5080422;28;20419;-61
2023/05/16 01:08:09;;;;;;;7.88;5.30;;;;;;;8.15;100.00;93569.53;5079066;28;20032;-59
2023/05/16 01:10:52;;;;;;;10.07;5.93;;;;;;;8.19;100.00;93573.75;5069181;28;20096;-60
2023/05/16 01:13:26;;;;;;;7.28;5.13;;;;;;;8.27;100.00;93574.47;5075246;28;21685;-59
2023/05/16 01:16:03;;;;;;;8.60;5.10;;;;;;;8.30;100.00;93570.13;5082381;28;20040;-61
2023/05/16 01:19:02;;;;;;;7.82;4.22;;;;;;;8.14;100.00;93570.69;5089393;28;20384;-59
2023/05/16 01:22:04;;;;;;;7.60;4.70;;;;;;;8.06;100.00;93569.22;5083161;28;20143;-59
2023/05/16 01:24:49;;;;;;;9.07;4.78;;;;;;;7.90;100.00;93570.56;5044673;28;20859;-59
2023/05/16 01:27:16;;;;;;;10.15;4.47;;;;;;;8.05;100.00;93571.19;5083275;28;20701;-59
2023/05/16 01:29:42;;;;;;;7.40;4.30;;;;;;;8.11;100.00;93568.75;5078539;28;20117;-59
2023/05/16 01:32:09;;;;;;;6.60;4.13;;;;;;;8.20;100.00;93569.06;5076162;28;20036;-61
2023/05/16 01:34:36;;;;;;;7.10;4.45;;;;;;;8.27;100.00;93577.19;5068910;28;20033;-59
2023/05/16 01:37:14;;;;;;;6.28;4.50;;;;;;;8.31;100.00;93575.19;5071943;28;20045;-61
2023/05/16 01:39:51;;;;;;;7.07;4.55;;;;;;;8.35;100.00;93570.44;5068858;28;20329;-60
2023/05/16 01:42:23;;;;;;;7.67;4.60;;;;;;;8.25;100.00;93576.81;5067453;28;21534;-62
2023/05/16 01:45:01;;;;;;;7.20;4.38;;;;;;;8.19;100.00;93573.00;5068100;28;20040;-59
2023/05/16 01:47:30;;;;;;;6.93;4.70;;;;;;;7.86;100.00;93567.09;5073869;28;20050;-59
2023/05/16 01:50:12;;;;;;;6.63;4.40;;;;;;;8.05;100.00;93568.47;5067886;28;20080;-59
2023/05/16 01:52:44;;;;;;;7.05;4.72;;;;;;;8.09;100.00;93557.47;5068470;28;20033;-59
2023/05/16 01:55:17;;;;;;;10.80;4.40;;;;;;;8.19;100.00;93568.28;5085563;28;20040;-61
2023/05/16 01:57:44;;;;;;;7.55;4.53;;;;;;;8.27;100.00;93571.72;5075594;28;20041;-58
2023/05/16 02:00:12;;;;;;;8.02;4.68;;;;;;;8.27;100.00;93558.06;5074598;28;20044;-60
2023/05/16 02:02:38;;;;;;;7.22;4.60;;;;;;;8.30;100.00;93561.91;5078636;28;20032;-60
2023/05/16 02:05:06;;;;;;;7.40;4.97;;;;;;;8.36;100.00;93560.28;5086594;28;20504;-60
2023/05/16 02:07:33;;;;;;;7.83;5.00;;;;;;;8.41;100.00;93562.59;5068557;28;20036;-60
2023/05/16 02:09:59;;;;;;;7.47;4.65;;;;;;;8.46;100.00;93555.91;5066267;28;20124;-61
2023/05/16 02:12:26;;;;;;;7.82;4.93;;;;;;;8.49;100.00;93557.78;5068323;28;20366;-59
2023/05/16 02:14:53;;;;;;;7.53;5.10;;;;;;;8.54;100.00;93554.59;5066231;28;20048;-59
2023/05/16 02:17:20;;;;;;;6.85;4.95;;;;;;;8.54;100.00;93552.66;5068235;28;20041;-59
2023/05/16 02:19:46;;;;;;;8.40;4.97;;;;;;;8.57;100.00;93548.31;5080805;28;20041;-60
2023/05/16 02:22:13;;;;;;;7.45;4.90;;;;;;;8.61;100.00;93546.28;5106856;28;20853;-59
2023/05/16 02:24:39;;;;;;;8.13;5.13;;;;;;;8.64;100.00;93552.91;5108861;28;20035;-59
2023/05/16 02:27:06;;;;;;;7.70;5.35;;;;;;;8.52;100.00;93552.28;5083079;28;20044;-59
2023/05/16 02:29:33;;;;;;;8.43;5.30;;;;;;;8.59;100.00;93554.13;5069995;28;20040;-61
2023/05/16 02:32:00;;;;;;;8.57;5.53;;;;;;;8.60;100.00;93555.69;5072764;28;20173;-60
2023/05/16 02:34:26;;;;;;;9.35;5.80;;;;;;;8.58;100.00;93550.63;5084639;28;20105;-59
2023/05/16 02:36:53;;;;;;;8.45;5.40;;;;;;;8.63;100.00;93554.09;5098720;28;20047;-59
2023/05/16 02:39:20;;;;;;;7.90;5.70;;;;;;;8.65;100.00;93552.50;5076175;28;20054;-59
2023/05/16 02:41:46;;;;;;;9.50;6.05;;;;;;;8.66;100.00;93556.78;5088110;28;20039;-60
2023/05/16 02:44:13;;;;;;;12.33;8.77;;;;;;;8.70;100.00;93551.28;5083310;28;20461;-60
2023/05/16 02:46:40;;;;;;;11.38;7.32;;;;;;;8.63;100.00;93556.81;5077336;28;20496;-59
2023/05/16 02:49:06;;;;;;;10.27;6.40;;;;;;;8.68;100.00;93548.94;5070321;28;20037;-59
2023/05/16 02:51:33;;;;;;;8.88;5.93;;;;;;;8.73;100.00;93553.97;5071138;28;20036;-59
2023/05/16 02:54:00;;;;;;;9.45;6.00;;;;;;;8.78;100.00;93549.97;5069948;28;20113;-60
2023/05/16 02:56:27;;;;;;;8.37;6.20;;;;;;;8.81;100.00;93551.88;5087961;28;20032;-61
2023/05/16 02:58:54;;;;;;;9.90;6.25;;;;;;;8.84;100.00;93545.59;5090958;28;20047;-60
2023/05/16 03:01:21;;;;;;;11.95;6.78;;;;;;;8.79;100.00;93543.31;5077108;28;20075;-60
2023/05/16 03:03:48;;;;;;;9.13;6.35;;;;;;;8.90;100.00;93545.91;5090892;28;20054;-59
2023/05/16 03:06:15;;;;;;;10.80;7.65;;;;;;;8.91;100.00;93550.94;5057506;28;20032;-59
2023/05/16 03:08:42;;;;;;;13.50;9.00;;;;;;;8.99;100.00;93541.47;5073179;28;20150;-60
2023/05/16 03:11:09;;;;;;;15.63;10.25;;;;;;;8.91;100.00;93539.22;5089896;28;20150;-60
2023/05/16 03:13:35;;;;;;;15.65;10.63;;;;;;;8.65;100.00;93551.72;5084351;28;20038;-59
2023/05/16 03:16:02;;;;;;;18.10;11.18;;;;;;;8.66;100.00;93548.56;5090136;28;20400;-61
2023/05/16 03:18:29;;;;;;;16.52;11.27;;;;;;;8.78;100.00;93548.00;5090747;28;20533;-59
2023/05/16 03:20:57;;;;;;;19.23;11.47;;;;;;;8.82;100.00;93549.94;5089045;28;20040;-59
2023/05/16 03:23:23;;;;;;;20.85;12.00;;;;;;;8.73;100.00;93540.28;5072769;28;20044;-61
2023/05/16 03:25:50;;;;;;;21.70;12.13;;;;;;;8.80;100.00;93542.91;5070381;28;20044;-60
2023/05/16 03:28:17;;;;;;;18.83;12.23;;;;;;;8.81;100.00;93551.88;5086533;28;20032;-59
2023/05/16 03:30:44;;;;;;;22.95;13.43;;;;;;;8.65;100.00;93551.72;5083006;28;20052;-60
2023/05/16 03:33:11;;;;;;;20.60;13.13;;;;;;;8.66;100.00;93554.06;5084193;28;20043;-59
2023/05/16 03:35:38;;;;;;;22.83;13.07;;;;;;;8.75;100.00;93548.84;5085437;28;20106;-59
2023/05/16 03:38:05;;;;;;;23.83;14.75;;;;;;;8.84;100.00;93544.81;5085226;28;20070;-60
2023/05/16 03:40:32;;;;;;;27.77;15.30;;;;;;;8.86;100.00;93543.22;5070887;28;20066;-59
2023/05/16 03:42:59;;;;;;;28.13;15.82;;;;;;;8.98;100.00;93548.13;5085317;28;20062;-61
2023/05/16 03:45:26;;;;;;;28.50;16.17;;;;;;;8.98;100.00;93545.38;5082611;28;20072;-60
2023/05/16 03:47:53;;;;;;;32.53;17.73;;;;;;;9.11;100.00;93537.34;5082294;28;20044;-59
2023/05/16 03:50:20;;;;;;;34.25;18.75;;;;;;;9.15;100.00;93540.81;5090948;28;20032;-59
2023/05/16 03:52:46;;;;;;;33.75;18.85;;;;;;;9.27;100.00;93536.69;5086045;28;20074;-59
2023/05/16 03:55:14;;;;;;;36.58;19.63;;;;;;;9.33;100.00;93532.31;5089621;28;20028;-64
2023/05/16 03:57:41;;;;;;;36.10;19.23;;;;;;;9.31;100.00;93536.66;5038217;28;20126;-62
2023/05/16 04:00:10;;;;;;;38.65;19.55;;;;;;;9.30;100.00;93537.84;5078480;28;20393;-61
2023/05/16 04:02:39;;;;;;;36.63;19.42;;;;;;;9.37;100.00;93540.47;5070673;28;20028;-61
2023/05/16 04:05:08;;;;;;;37.63;19.90;;;;;;;9.30;100.00;93546.84;5063144;28;20551;-61
2023/05/16 04:07:35;;;;;;;40.47;20.25;;;;;;;9.35;100.00;93540.09;5065438;28;20036;-61
2023/05/16 04:10:03;;;;;;;37.00;20.40;;;;;;;9.32;100.00;93541.72;5100135;28;20046;-61
2023/05/16 04:12:30;;;;;;;41.53;21.00;;;;;;;9.30;100.00;93538.63;5078347;28;20055;-60
2023/05/16 04:14:56;;;;;;;41.22;20.35;;;;;;;9.27;100.00;93547.66;5081661;28;20108;-59
2023/05/16 04:17:23;;;;;;;40.00;21.10;;;;;;;9.28;100.00;93548.44;5070050;28;20058;-60
2023/05/16 04:19:50;;;;;;;40.78;21.67;;;;;;;9.36;100.00;93539.69;5084865;28;20044;-60
2023/05/16 04:22:20;;;;;;;40.57;21.57;;;;;;;9.36;100.00;93545.16;5077283;28;20040;-62
2023/05/16 04:24:47;;;;;;;42.83;21.08;;;;;;;9.32;100.00;93543.69;5089865;28;20281;-60
2023/05/16 04:27:13;;;;;;;45.05;22.77;;;;;;;9.27;100.00;93544.91;5075749;28;20426;-60
2023/05/16 04:29:40;;;;;;;46.40;22.02;;;;;;;9.35;100.00;93546.34;5090156;28;20052;-62
2023/05/16 04:32:07;;;;;;;44.00;21.38;;;;;;;9.36;100.00;93547.91;5083605;28;20128;-60
2023/05/16 04:34:36;;;;;;;45.73;22.27;;;;;;;9.28;100.00;93549.22;5079248;28;20028;-60
2023/05/16 04:37:07;;;;;;;47.33;22.25;;;;;;;9.34;100.00;93544.81;5094405;28;20028;-59
2023/05/16 04:39:35;;;;;;;47.63;23.30;;;;;;;9.39;100.00;93546.28;5070948;28;20034;-59
2023/05/16 04:42:03;;;;;;;46.78;22.35;;;;;;;9.36;100.00;93552.63;5080982;28;20387;-61
2023/05/16 04:44:30;;;;;;;46.50;22.63;;;;;;;9.34;100.00;93549.53;5070289;28;20085;-59
2023/05/16 04:46:57;;;;;;;44.73;22.10;;;;;;;9.44;100.00;93547.78;5094512;28;20035;-59
2023/05/16 04:49:24;;;;;;;49.47;23.52;;;;;;;9.50;100.00;93552.38;5080929;28;20039;-60
2023/05/16 04:51:51;;;;;;;48.05;22.65;;;;;;;9.45;100.00;93557.56;5088133;28;20122;-60
2023/05/16 04:54:17;;;;;;;48.70;22.70;;;;;;;9.44;100.00;93545.03;5082485;28;20035;-60
2023/05/16 04:56:44;;;;;;;46.50;22.33;;;;;;;9.55;100.00;93546.41;5074639;28;20044;-59
2023/05/16 04:59:11;;;;;;;49.63;23.17;;;;;;;9.57;100.00;93549.50;5093955;28;20100;-59
2023/05/16 05:01:38;;;;;;;48.90;23.35;;;;;;;9.57;100.00;93546.75;5103631;28;20364;-59
2023/05/16 05:04:05;;;;;;;50.40;23.02;;;;;;;9.59;100.00;93554.56;5094146;28;20070;-60
2023/05/16 05:06:32;;;;;;;46.92;21.25;;;;;;;9.60;100.00;93550.66;5087856;28;20044;-59
2023/05/16 05:08:59;;;;;;;50.20;22.55;;;;;;;9.44;100.00;93556.00;5087387;28;20038;-62
2023/05/16 05:11:26;;;;;;;54.87;23.70;;;;;;;9.42;100.00;93561.09;5076750;28;20054;-59
2023/05/16 05:13:53;;;;;;;45.95;21.83;;;;;;;9.57;100.00;93549.50;5095189;28;20057;-60
2023/05/16 05:16:19;;;;;;;48.92;22.33;;;;;;;9.55;100.00;93560.09;5073712;28;20046;-59
2023/05/16 05:18:46;;;;;;;47.67;21.60;;;;;;;9.62;100.00;93552.94;5108605;28;20403;-62
2023/05/16 05:21:13;;;;;;;50.08;23.30;;;;;;;9.64;100.00;93551.38;5089307;28;20039;-60
2023/05/16 05:23:40;;;;;;;52.00;24.10;;;;;;;9.63;100.00;93549.78;5108677;28;20051;-60
2023/05/16 05:26:07;;;;;;;46.63;22.20;;;;;;;9.77;100.00;93562.47;5107730;28;20039;-62
2023/05/16 05:28:33;;;;;;;48.00;22.27;;;;;;;9.72;100.00;93562.97;5102471;28;20039;-59
2023/05/16 05:31:00;;;;;;;46.13;22.15;;;;;;;9.57;100.00;93551.47;5081132;28;20040;-60
2023/05/16 05:33:28;;;;;;;46.45;22.13;;;;;;;9.71;100.00;93558.66;5090147;28;20062;-61
2023/05/16 05:35:55;;;;;;;47.63;22.27;;;;;;;9.80;100.00;93559.69;5103336;28;20074;-60
2023/05/16 05:38:22;;;;;;;49.70;23.60;;;;;;;9.73;100.00;93556.28;5067528;28;20105;-59
2023/05/16 05:40:48;;;;;;;50.67;23.13;;;;;;;9.80;100.00;93553.44;5087667;28;20039;-61
2023/05/16 05:43:16;;;;;;;52.70;23.30;;;;;;;9.70;100.00;93565.31;5087417;28;20051;-59
2023/05/16 05:45:43;;;;;;;49.17;23.42;;;;;;;9.89;100.00;93561.84;5087887;28;20040;-60
2023/05/16 05:48:11;;;;;;;46.90;22.33;;;;;;;9.90;100.00;93563.41;5075807;28;20048;-60
2023/05/16 05:50:38;;;;;;;47.13;21.98;;;;;;;9.78;100.00;93562.06;5071994;28;20113;-59
2023/05/16 05:53:05;;;;;;;47.72;22.65;;;;;;;9.94;100.00;93568.81;5087386;28;20036;-60
2023/05/16 05:55:31;;;;;;;51.83;23.48;;;;;;;10.03;100.00;93560.81;5076336;28;20043;-59
2023/05/16 05:57:58;;;;;;;48.22;22.48;;;;;;;10.04;100.00;93564.34;5071429;28;20051;-61
2023/05/16 06:00:25;;;;;;;48.00;22.30;;;;;;;9.72;100.00;93565.72;5108529;28;20042;-60
2023/05/16 06:02:52;;;;;;;47.17;22.73;;;;;;;9.82;100.00;93575.72;5108107;28;20046;-60
2023/05/16 06:05:19;;;;;;;47.67;22.88;;;;;;;9.81;100.00;93582.38;5108384;28;20028;-61
2023/05/16 06:07:45;;;;;;;51.65;22.70;;;;;;;9.72;100.00;93582.16;5100748;28;20047;-59
2023/05/16 06:10:12;;;;;;;50.65;22.90;;;;;;;9.63;100.00;93579.16;5102659;28;20031;-60
2023/05/16 06:12:39;;;;;;;48.13;22.57;;;;;;;9.63;100.00;93582.69;5108429;28;20047;-59
2023/05/16 06:15:06;;;;;;;45.92;21.63;;;;;;;9.74;100.00;93586.00;5107421;28;20478;-59
2023/05/16 06:17:33;;;;;;;51.03;23.60;;;;;;;9.62;100.00;93586.63;5091485;28;20040;-60
2023/05/16 06:20:00;;;;;;;47.72;22.13;;;;;;;9.71;100.00;93586.06;5088017;28;20103;-59
2023/05/16 06:22:27;;;;;;;48.42;21.40;;;;;;;9.77;100.00;93581.66;5098572;28;20470;-60
2023/05/16 06:24:53;;;;;;;44.53;20.60;;;;;;;9.82;100.00;93588.63;5112229;28;20436;-60
2023/05/16 06:27:20;;;;;;;46.22;21.48;;;;;;;10.00;100.00;93589.84;5109689;28;20036;-59
2023/05/16 06:29:47;;;;;;;49.33;22.83;;;;;;;9.78;100.00;93589.47;5112515;28;20027;-58
2023/05/16 06:32:13;;;;;;;48.97;23.52;;;;;;;9.75;100.00;93586.78;5056818;28;20606;-61
2023/05/16 06:34:40;;;;;;;45.83;22.40;;;;;;;10.08;100.00;93587.75;5108669;28;20046;-60
2023/05/16 06:37:07;;;;;;;44.90;21.63;;;;;;;10.03;100.00;93598.44;5097505;28;20032;-60
2023/05/16 06:39:33;;;;;;;51.55;22.33;;;;;;;9.77;100.00;93589.88;5092376;28;20357;-58
2023/05/16 06:42:00;;;;;;;43.15;21.73;;;;;;;9.98;100.00;93586.75;5091652;28;20043;-58
2023/05/16 06:44:27;;;;;;;47.25;22.55;;;;;;;9.92;100.00;93593.94;5077389;28;20067;-58
2023/05/16 06:46:54;;;;;;;43.72;21.23;;;;;;;10.03;100.00;93593.72;5066154;28;20047;-60
2023/05/16 06:49:21;;;;;;;43.07;21.13;;;;;;;9.87;100.00;93594.41;5079419;28;20040;-58
2023/05/16 06:51:47;;;;;;;42.85;21.23;;;;;;;10.12;100.00;93593.16;5071116;28;20153;-58
2023/05/16 06:54:14;;;;;;;45.72;22.52;;;;;;;10.11;100.00;93594.38;5092008;28;20096;-58
2023/05/16 06:56:41;;;;;;;44.25;22.35;;;;;;;9.95;100.00;93595.03;5076169;28;20041;-58
2023/05/16 06:59:08;;;;;;;43.15;20.85;;;;;;;9.94;100.00;93593.47;5079761;28;20052;-60
2023/05/16 07:01:35;;;;;;;46.00;22.13;;;;;;;10.12;100.00;93599.44;5072001;28;20038;-58
2023/05/16 07:04:01;;;;;;;41.08;21.08;;;;;;;10.36;100.00;93591.16;5091195;28;20051;-58
2023/05/16 07:06:28;;;;;;;40.45;21.33;;;;;;;10.13;100.00;93600.22;5090624;28;20045;-58
2023/05/16 07:08:55;;;;;;;39.45;20.50;;;;;;;10.43;100.00;93601.25;5072581;28;20392;-58
2023/05/16 07:11:22;;;;;;;41.72;22.90;;;;;;;10.50;100.00;93596.38;5071429;28;20093;-58
2023/05/16 07:13:48;;;;;;;39.40;20.57;;;;;;;10.55;100.00;93598.63;5086030;28;20068;-60
2023/05/16 07:16:15;;;;;;;35.50;20.17;;;;;;;10.68;100.00;93585.03;5080798;28;20036;-58
2023/05/16 07:18:42;;;;;;;35.83;19.27;;;;;;;10.75;100.00;93584.13;5091348;28;20043;-59
2023/05/16 07:21:10;;;;;;;37.28;19.48;;;;;;;10.83;100.00;93590.22;5072853;28;20036;-58
2023/05/16 07:23:36;;;;;;;34.97;19.65;;;;;;;10.82;100.00;93594.16;5090873;28;20044;-58
2023/05/16 07:26:03;;;;;;;32.23;18.67;;;;;;;10.75;100.00;93593.13;5073219;28;20435;-58
2023/05/16 07:28:30;;;;;;;34.33;18.92;;;;;;;10.58;100.00;93583.28;5101844;28;20515;-58
2023/05/16 07:30:59;;;;;;;36.75;21.10;;;;;;;10.57;100.00;93593.47;5109990;28;20061;-59
2023/05/16 07:33:26;;;;;;;36.83;19.85;;;;;;;11.03;100.00;93590.16;5092297;28;20052;-58
2023/05/16 07:35:53;;;;;;;36.35;20.50;;;;;;;11.14;100.00;93593.44;5101523;28;20044;-60
2023/05/16 07:38:40;;;;;;;37.43;19.80;;;;;;;11.16;100.00;93586.31;5111455;28;20040;-59
2023/05/16 07:41:07;;;;;;;32.47;17.95;;;;;;;11.55;100.00;93592.09;5110295;28;20046;-60
2023/05/16 07:43:34;;;;;;;34.03;19.40;;;;;;;11.64;100.00;93597.78;5101956;28;20051;-58
2023/05/16 07:46:02;;;;;;;33.22;19.13;;;;;;;11.69;100.00;93601.97;5102978;28;20044;-62
2023/05/16 07:48:28;;;;;;;31.73;18.33;;;;;;;12.06;100.00;93595.19;5090316;28;20078;-59
2023/05/16 07:50:55;;;;;;;35.00;20.13;;;;;;;11.87;100.00;93601.53;5089862;28;20036;-59
2023/05/16 07:53:22;;;;;;;33.03;18.83;;;;;;;12.56;100.00;93595.81;5108979;28;20394;-58
2023/05/16 07:55:49;;;;;;;36.28;21.88;;;;;;;12.53;100.00;93602.19;5099572;28;20040;-58
2023/05/16 07:58:16;;;;;;;32.25;19.60;;;;;;;13.03;100.00;93599.97;5103606;28;20032;-61
2023/05/16 08:00:43;;;;;;;32.53;19.90;;;;;;;12.85;100.00;93601.25;5090475;28;20262;-60
2023/05/16 08:03:09;;;;;;;31.80;19.03;;;;;;;12.96;100.00;93592.72;5089566;28;20044;-58
2023/05/16 08:05:36;;;;;;;29.60;17.27;;;;;;;12.82;100.00;93593.09;5090041;28;20371;-59
2023/05/16 08:08:04;;;;;;;29.45;18.08;;;;;;;12.57;100.00;93597.34;5067461;28;20105;-58
2023/05/16 08:10:31;;;;;;;28.85;17.13;;;;;;;12.30;100.00;93601.22;5104372;28;20234;-58
2023/05/16 08:12:57;;;;;;;31.52;18.30;;;;;;;11.90;100.00;93603.47;5102350;28;20042;-58
2023/05/16 08:15:26;;;;;;;32.40;17.57;;;;;;;11.92;100.00;93607.31;5109760;28;20047;-61
2023/05/16 08:17:57;;;;;;;36.47;19.95;;;;;;;11.36;100.00;93611.00;5109847;28;20114;-59
2023/05/16 08:20:25;;;;;;;34.03;19.52;;;;;;;11.35;100.00;93614.19;5105211;28;20038;-59
2023/05/16 08:22:51;;;;;;;33.42;18.45;;;;;;;11.07;100.00;93624.59;5089513;28;20048;-59
2023/05/16 08:25:18;;;;;;;29.40;17.48;;;;;;;10.96;100.00;93616.56;5089656;28;20044;-61
2023/05/16 08:27:45;;;;;;;29.87;15.80;;;;;;;11.12;100.00;93629.56;5094340;28;20051;-59
2023/05/16 08:30:13;;;;;;;25.40;13.95;;;;;;;11.14;100.00;93618.16;5088779;28;20560;-60
2023/05/16 08:32:40;;;;;;;25.17;14.20;;;;;;;10.95;100.00;93620.53;5078644;28;20048;-60
2023/05/16 08:35:07;;;;;;;27.88;15.30;;;;;;;10.85;100.00;93629.00;5076844;28;20110;-61
2023/05/16 08:37:34;;;;;;;27.10;15.20;;;;;;;10.99;100.00;93637.72;5086660;28;20036;-60
2023/05/16 08:40:07;;;;;;;26.17;14.40;;;;;;;10.94;100.00;93634.69;5089606;28;20063;-59
2023/05/16 08:42:34;;;;;;;26.48;14.48;;;;;;;11.12;100.00;93634.31;5072113;28;20048;-60
2023/05/16 08:45:01;;;;;;;23.95;13.63;;;;;;;11.14;100.00;93635.41;5089520;28;20429;-59
2023/05/16 08:47:30;;;;;;;21.42;12.60;;;;;;;10.96;100.00;93637.78;5102976;28;20043;-59
2023/05/16 08:49:57;;;;;;;22.65;12.77;;;;;;;10.76;100.00;93646.03;5083155;28;20442;-59
2023/05/16 08:52:30;;;;;;;23.83;12.53;;;;;;;10.70;100.00;93651.22;5083357;28;20040;-60
2023/05/16 08:55:00;;;;;;;22.25;12.68;;;;;;;10.83;100.00;93648.66;5065870;28;20050;-62
2023/05/16 08:57:32;;;;;;;19.77;11.85;;;;;;;10.53;100.00;93650.41;5051730;28;20040;-60
2023/05/16 08:59:59;;;;;;;21.35;12.98;;;;;;;10.36;100.00;93654.25;5069197;28;20105;-60
2023/05/16 09:02:27;;;;;;;18.10;10.70;;;;;;;10.65;100.00;93653.72;5069494;28;20385;-60
2023/05/16 09:04:56;;;;;;;17.70;10.07;;;;;;;10.65;100.00;93653.72;5070076;28;20128;-60
2023/05/16 09:07:23;;;;;;;17.02;10.13;;;;;;;10.67;100.00;93654.06;5084805;28;20396;-60
2023/05/16 09:09:50;;;;;;;17.75;10.48;;;;;;;10.52;100.00;93662.59;5070837;28;20369;-60
2023/05/16 09:12:19;;;;;;;17.77;10.45;;;;;;;10.45;100.00;93659.19;5089298;28;20365;-61
2023/05/16 09:14:46;;;;;;;21.55;11.73;;;;;;;10.36;100.00;93657.78;5071248;28;20374;-62
2023/05/16 09:17:14;;;;;;;20.23;11.60;;;;;;;10.42;100.00;93665.50;5068094;28;20371;-60
2023/05/16 09:19:49;;;;;;;19.75;11.52;;;;;;;10.32;100.00;93657.09;5075317;28;20048;-60
2023/05/16 09:22:17;;;;;;;24.02;14.15;;;;;;;9.84;100.00;93662.97;5067217;28;20051;-60
2023/05/16 09:24:44;;;;;;;25.05;14.45;;;;;;;9.76;100.00;93659.59;5069559;28;20032;-59
2023/05/16 09:27:13;;;;;;;24.58;14.02;;;;;;;9.89;100.00;93665.25;5089028;28;20072;-59
2023/05/16 09:29:41;;;;;;;22.10;11.53;;;;;;;9.98;100.00;93658.03;5089567;28;20075;-60
2023/05/16 09:32:13;;;;;;;19.88;11.65;;;;;;;10.04;100.00;93652.06;5088917;28;20059;-60
2023/05/16 09:34:44;;;;;;;17.45;10.23;;;;;;;10.02;100.00;93663.47;5088375;28;20054;-61
2023/05/16 09:37:11;;;;;;;18.30;10.32;;;;;;;9.97;100.00;93658.44;5093552;28;20303;-61
2023/05/16 09:39:45;;;;;;;23.13;11.95;;;;;;;9.82;100.00;93670.84;5068815;28;20044;-60
2023/05/16 09:42:12;;;;;;;19.83;11.47;;;;;;;9.59;100.00;93670.41;5068283;28;20040;-59
2023/05/16 09:44:39;;;;;;;19.90;11.95;;;;;;;9.49;100.00;93676.03;5072011;28;20109;-60
2023/05/16 09:47:06;;;;;;;20.67;11.05;;;;;;;9.76;100.00;93667.81;5082877;28;20044;-61
2023/05/16 09:49:36;;;;;;;17.95;10.35;;;;;;;9.72;100.00;93670.59;5084122;28;20244;-60
2023/05/16 09:52:04;;;;;;;18.58;10.20;;;;;;;9.95;100.00;93666.31;5087487;28;20032;-60
2023/05/16 09:54:34;;;;;;;16.20;9.40;;;;;;;9.97;100.00;93663.94;5088194;28;20036;-60
2023/05/16 09:57:01;;;;;;;17.40;9.85;;;;;;;10.10;100.00;93667.63;5087961;28;20071;-60
2023/05/16 09:59:38;;;;;;;19.52;10.80;;;;;;;9.65;100.00;93659.75;5087870;28;20102;-60
2023/05/16 10:02:06;;;;;;;17.85;10.60;;;;;;;9.77;100.00;93669.34;5087889;28;20048;-63
2023/05/16 10:04:37;;;;;;;18.40;11.23;;;;;;;9.51;100.00;93666.22;5088044;28;20043;-60
2023/05/16 10:07:05;;;;;;;19.37;11.23;;;;;;;9.63;100.00;93669.59;5088020;28;20048;-60
2023/05/16 10:09:33;;;;;;;19.20;10.95;;;;;;;9.89;100.00;93673.47;5088009;28;20124;-60
2023/05/16 10:12:06;;;;;;;18.05;10.50;;;;;;;10.34;100.00;93662.13;5082389;28;20047;-60
2023/05/16 10:14:35;;;;;;;18.17;10.40;;;;;;;10.50;100.00;93654.00;5067803;28;20363;-60
2023/05/16 10:17:07;;;;;;;14.88;9.25;;;;;;;10.77;100.00;93659.34;5071807;28;20473;-60
2023/05/16 10:19:37;;;;;;;15.87;10.20;;;;;;;10.40;100.00;93652.22;5086778;28;20097;-62
2023/05/16 10:22:06;;;;;;;15.43;9.77;;;;;;;10.54;100.00;93660.19;5085981;28;20048;-60
2023/05/16 10:24:46;;;;;;;14.43;8.20;;;;;;;10.41;100.00;93655.75;5091618;28;20039;-59
2023/05/16 10:27:14;;;;;;;11.15;6.93;;;;;;;10.54;100.00;93662.94;5107793;28;20028;-60
2023/05/16 10:29:44;;;;;;;10.60;6.57;;;;;;;10.70;100.00;93656.72;5108437;28;20695;-61
2023/05/16 10:32:22;;;;;;;10.73;7.00;;;;;;;10.58;100.00;93662.84;5070777;28;20044;-60
2023/05/16 10:34:50;;;;;;;12.95;7.95;;;;;;;10.26;100.00;93650.50;5087294;28;20096;-63
2023/05/16 10:37:16;;;;;;;13.68;8.80;;;;;;;10.26;100.00;93647.75;5098122;28;20040;-60
2023/05/16 10:39:44;;;;;;;14.30;9.57;;;;;;;10.45;100.00;93656.47;5087717;28;20047;-60
2023/05/16 10:42:16;;;;;;;17.45;10.55;;;;;;;10.49;100.00;93657.94;5100760;28;20148;-61
2023/05/16 10:44:43;;;;;;;18.33;11.93;;;;;;;10.43;100.00;93665.09;5095756;28;20100;-61
2023/05/16 10:47:23;;;;;;;18.90;11.93;;;;;;;10.87;100.00;93670.53;5091309;28;21584;-61
2023/05/16 10:49:51;;;;;;;18.85;12.23;;;;;;;10.79;100.00;93667.94;5091171;28;20040;-59
2023/05/16 10:52:17;;;;;;;20.65;13.73;;;;;;;10.47;100.00;93663.06;5088416;28;20043;-60
2023/05/16 10:54:54;;;;;;;20.35;13.13;;;;;;;10.59;100.00;93675.38;5105637;28;20038;-60
2023/05/16 10:57:23;;;;;;;21.83;13.93;;;;;;;10.31;100.00;93673.94;5100359;28;20458;-60
2023/05/16 10:59:51;;;;;;;22.73;14.30;;;;;;;9.95;100.00;93672.56;5088885;28;20411;-60
2023/05/16 11:02:27;;;;;;;23.60;13.95;;;;;;;10.07;100.00;93673.16;5108414;28;20059;-61
2023/05/16 11:04:56;;;;;;;23.20;14.15;;;;;;;10.35;100.00;93675.44;5110666;28;20056;-61
2023/05/16 11:07:24;;;;;;;22.67;13.48;;;;;;;10.80;100.00;93679.66;5100077;28;20059;-60
2023/05/16 11:10:08;;;;;;;19.03;11.10;;;;;;;10.97;100.00;93673.06;5085215;28;20046;-60
2023/05/16 11:12:42;;;;;;;18.77;11.85;;;;;;;11.26;100.00;93675.19;5091540;28;20036;-62
2023/05/16 11:15:27;;;;;;;19.63;11.88;;;;;;;11.02;100.00;93671.78;5059757;28;20050;-60
2023/05/16 11:18:05;;;;;;;25.25;15.32;;;;;;;11.07;100.00;93676.78;5091090;28;20040;-61
2023/05/16 11:20:34;;;;;;;37.25;22.83;;;;;;;11.22;100.00;93665.47;5088161;28;20067;-60
2023/05/16 11:23:20;;;;;;;21.03;14.07;;;;;;;11.02;100.00;93671.00;5091003;28;20048;-61
2023/05/16 11:25:50;;;;;;;24.20;13.73;;;;;;;10.67;100.00;93674.06;5091581;28;20063;-61